sensor_id;sensor_type;location;lat;lon;timestamp;temperature;humidity
51615;DHT22;37695;52.960;6.188;2023-03-04T00:02:15;6.30;99.90
51615;DHT22;37695;52.960;6.188;2023-03-04T00:04:41;6.20;99.90
51615;DHT22;37695;52.960;6.188;2023-03-04T00:07:06;6.30;99.90
51615;DHT22;37695;52.960;6.188;2023-03-04T00:09:32;6.30;99.90
51615;DHT22;37695;52.960;6.188;2023-03-04T00:11:57;6.30;99.90
51615;DHT22;37695;52.960;6.188;2023-03-04T00:14:23;6.30;99.90
51615;DHT22;37695;52.960;6.188;2023-03-04T00:16:48;6.30;99.90
51615;DHT22;37695;52.960;6.188;2023-03-04T00:19:14;6.30;99.90
51615;DHT22;37695;52.960;6.188;2023-03-04T00:21:39;6.20;99.90
51615;DHT22;37695;52.960;6.188;2023-03-04T00:24:05;6.20;99.90
51615;DHT22;37695;52.960;6.188;2023-03-04T00:26:31;6.20;99.90
51615;DHT22;37695;52.960;6.188;2023-03-04T00:28:57;6.20;99.90
51615;DHT22;37695;52.960;6.188;2023-03-04T00:31:22;6.20;99.90
51615;DHT22;37695;52.960;6.188;2023-03-04T00:33:48;6.20;99.90
51615;DHT22;37695;52.960;6.188;2023-03-04T00:36:13;6.20;99.90
51615;DHT22;37695;52.960;6.188;2023-03-04T00:38:39;6.20;99.90
51615;DHT22;37695;52.960;6.188;2023-03-04T00:41:05;6.10;99.90
51615;DHT22;37695;52.960;6.188;2023-03-04T00:43:31;6.10;99.90
51615;DHT22;37695;52.960;6.188;2023-03-04T00:45:56;6.10;99.90
51615;DHT22;37695;52.960;6.188;2023-03-04T00:48:22;6.20;99.90
51615;DHT22;37695;52.960;6.188;2023-03-04T00:50:47;6.20;99.90
51615;DHT22;37695;52.960;6.188;2023-03-04T00:53:18;6.20;99.90
51615;DHT22;37695;52.960;6.188;2023-03-04T00:55:44;6.20;99.90
51615;DHT22;37695;52.960;6.188;2023-03-04T00:58:09;6.20;99.90
51615;DHT22;37695;52.960;6.188;2023-03-04T01:00:35;6.20;99.90
51615;DHT22;37695;52.960;6.188;2023-03-04T01:03:00;6.20;99.90
51615;DHT22;37695;52.960;6.188;2023-03-04T01:05:26;6.10;99.90
51615;DHT22;37695;52.960;6.188;2023-03-04T01:07:51;6.20;99.90
51615;DHT22;37695;52.960;6.188;2023-03-04T01:10:17;6.20;99.90
51615;DHT22;37695;52.960;6.188;2023-03-04T01:12:43;6.20;99.90
51615;DHT22;37695;52.960;6.188;2023-03-04T01:15:10;6.20;99.90
51615;DHT22;37695;52.960;6.188;2023-03-04T01:17:37;6.20;99.90
51615;DHT22;37695;52.960;6.188;2023-03-04T01:20:04;6.20;99.90
51615;DHT22;37695;52.960;6.188;2023-03-04T01:22:30;6.20;99.90
51615;DHT22;37695;52.960;6.188;2023-03-04T01:24:55;6.20;99.90
51615;DHT22;37695;52.960;6.188;2023-03-04T01:27:21;6.10;99.90
51615;DHT22;37695;52.960;6.188;2023-03-04T01:29:46;6.20;99.90
51615;DHT22;37695;52.960;6.188;2023-03-04T01:32:12;6.20;99.90
51615;DHT22;37695;52.960;6.188;2023-03-04T01:34:37;6.20;99.90
51615;DHT22;37695;52.960;6.188;2023-03-04T01:37:03;6.10;99.90
51615;DHT22;37695;52.960;6.188;2023-03-04T01:39:29;6.10;99.90
51615;DHT22;37695;52.960;6.188;2023-03-04T01:41:54;6.10;99.90
51615;DHT22;37695;52.960;6.188;2023-03-04T01:44:20;6.10;99.90
51615;DHT22;37695;52.960;6.188;2023-03-04T01:46:48;6.10;99.90
51615;DHT22;37695;52.960;6.188;2023-03-04T01:49:14;6.10;99.90
51615;DHT22;37695;52.960;6.188;2023-03-04T01:51:48;6.00;99.90
51615;DHT22;37695;52.960;6.188;2023-03-04T01:54:15;6.00;99.90
51615;DHT22;37695;52.960;6.188;2023-03-04T01:56:44;6.00;99.90
51615;DHT22;37695;52.960;6.188;2023-03-04T01:59:16;6.00;99.90
51615;DHT22;37695;52.960;6.188;2023-03-04T02:01:55;6.00;99.90
51615;DHT22;37695;52.960;6.188;2023-03-04T02:04:24;6.00;99.90
51615;DHT22;37695;52.960;6.188;2023-03-04T02:06:51;6.00;99.90
51615;DHT22;37695;52.960;6.188;2023-03-04T02:09:17;6.00;99.90
51615;DHT22;37695;52.960;6.188;2023-03-04T02:11:44;6.00;99.90
51615;DHT22;37695;52.960;6.188;2023-03-04T02:14:11;6.00;99.90
51615;DHT22;37695;52.960;6.188;2023-03-04T02:16:37;6.00;99.90
51615;DHT22;37695;52.960;6.188;2023-03-04T02:19:13;6.00;99.90
51615;DHT22;37695;52.960;6.188;2023-03-04T02:21:40;6.00;99.90
51615;DHT22;37695;52.960;6.188;2023-03-04T02:24:41;6.00;99.90
51615;DHT22;37695;52.960;6.188;2023-03-04T02:27:08;6.00;99.90
51615;DHT22;37695;52.960;6.188;2023-03-04T02:29:33;6.00;99.90
51615;DHT22;37695;52.960;6.188;2023-03-04T02:31:59;6.00;99.90
51615;DHT22;37695;52.960;6.188;2023-03-04T02:34:30;6.00;99.90
51615;DHT22;37695;52.960;6.188;2023-03-04T02:36:57;6.00;99.90
51615;DHT22;37695;52.960;6.188;2023-03-04T02:39:32;6.00;99.90
51615;DHT22;37695;52.960;6.188;2023-03-04T02:41:59;5.90;99.90
51615;DHT22;37695;52.960;6.188;2023-03-04T02:44:31;5.90;99.90
51615;DHT22;37695;52.960;6.188;2023-03-04T02:46:59;5.90;99.90
51615;DHT22;37695;52.960;6.188;2023-03-04T02:49:27;5.90;99.90
51615;DHT22;37695;52.960;6.188;2023-03-04T02:52:07;5.90;99.90
51615;DHT22;37695;52.960;6.188;2023-03-04T02:54:34;5.90;99.90
51615;DHT22;37695;52.960;6.188;2023-03-04T02:57:03;5.90;99.90
51615;DHT22;37695;52.960;6.188;2023-03-04T02:59:29;5.90;99.90
51615;DHT22;37695;52.960;6.188;2023-03-04T03:01:55;5.90;99.90
51615;DHT22;37695;52.960;6.188;2023-03-04T03:04:21;5.90;99.90
51615;DHT22;37695;52.960;6.188;2023-03-04T03:06:48;5.90;99.90
51615;DHT22;37695;52.960;6.188;2023-03-04T03:09:14;5.90;99.90
51615;DHT22;37695;52.960;6.188;2023-03-04T03:11:39;5.90;99.90
51615;DHT22;37695;52.960;6.188;2023-03-04T03:14:05;5.90;99.90
51615;DHT22;37695;52.960;6.188;2023-03-04T03:16:31;5.90;99.90
51615;DHT22;37695;52.960;6.188;2023-03-04T03:18:56;5.90;99.90
51615;DHT22;37695;52.960;6.188;2023-03-04T03:21:22;5.90;99.90
51615;DHT22;37695;52.960;6.188;2023-03-04T03:23:47;5.90;99.90
51615;DHT22;37695;52.960;6.188;2023-03-04T03:26:14;5.90;99.90
51615;DHT22;37695;52.960;6.188;2023-03-04T03:28:39;5.90;99.90
51615;DHT22;37695;52.960;6.188;2023-03-04T03:31:05;5.90;99.90
51615;DHT22;37695;52.960;6.188;2023-03-04T03:33:30;5.90;99.90
51615;DHT22;37695;52.960;6.188;2023-03-04T03:35:56;5.90;99.90
51615;DHT22;37695;52.960;6.188;2023-03-04T03:38:22;5.90;99.90
51615;DHT22;37695;52.960;6.188;2023-03-04T03:40:48;5.90;99.90
51615;DHT22;37695;52.960;6.188;2023-03-04T03:43:13;6.00;99.90
51615;DHT22;37695;52.960;6.188;2023-03-04T03:45:39;5.90;99.90
51615;DHT22;37695;52.960;6.188;2023-03-04T03:48:04;6.00;99.90
51615;DHT22;37695;52.960;6.188;2023-03-04T03:50:30;6.00;99.90
51615;DHT22;37695;52.960;6.188;2023-03-04T03:52:56;6.00;99.90
51615;DHT22;37695;52.960;6.188;2023-03-04T03:55:22;6.00;99.90
51615;DHT22;37695;52.960;6.188;2023-03-04T03:57:47;5.90;99.90
51615;DHT22;37695;52.960;6.188;2023-03-04T04:00:13;6.00;99.90
51615;DHT22;37695;52.960;6.188;2023-03-04T04:02:39;6.00;99.90
51615;DHT22;37695;52.960;6.188;2023-03-04T04:05:06;6.00;99.90
51615;DHT22;37695;52.960;6.188;2023-03-04T04:07:32;5.90;99.90
51615;DHT22;37695;52.960;6.188;2023-03-04T04:09:58;6.00;99.90
51615;DHT22;37695;52.960;6.188;2023-03-04T04:12:24;5.90;99.90
51615;DHT22;37695;52.960;6.188;2023-03-04T04:14:49;6.00;99.90
51615;DHT22;37695;52.960;6.188;2023-03-04T04:17:15;5.90;99.90
51615;DHT22;37695;52.960;6.188;2023-03-04T04:19:41;5.90;99.90
51615;DHT22;37695;52.960;6.188;2023-03-04T04:22:09;5.90;99.90
51615;DHT22;37695;52.960;6.188;2023-03-04T04:24:36;5.90;99.90
51615;DHT22;37695;52.960;6.188;2023-03-04T04:27:02;5.90;99.90
51615;DHT22;37695;52.960;6.188;2023-03-04T04:29:29;5.90;99.90
51615;DHT22;37695;52.960;6.188;2023-03-04T04:31:54;5.90;99.90
51615;DHT22;37695;52.960;6.188;2023-03-04T04:34:20;5.90;99.90
51615;DHT22;37695;52.960;6.188;2023-03-04T04:36:45;5.90;99.90
51615;DHT22;37695;52.960;6.188;2023-03-04T04:39:11;5.90;99.90
51615;DHT22;37695;52.960;6.188;2023-03-04T04:41:39;5.90;99.90
51615;DHT22;37695;52.960;6.188;2023-03-04T04:44:05;5.90;99.90
51615;DHT22;37695;52.960;6.188;2023-03-04T04:46:31;5.90;99.90
51615;DHT22;37695;52.960;6.188;2023-03-04T04:48:56;6.00;99.90
51615;DHT22;37695;52.960;6.188;2023-03-04T04:51:22;6.00;99.90
51615;DHT22;37695;52.960;6.188;2023-03-04T04:53:48;6.00;99.90
51615;DHT22;37695;52.960;6.188;2023-03-04T04:56:19;6.00;99.90
51615;DHT22;37695;52.960;6.188;2023-03-04T04:58:45;6.00;99.90
51615;DHT22;37695;52.960;6.188;2023-03-04T05:01:12;6.00;99.90
51615;DHT22;37695;52.960;6.188;2023-03-04T05:03:39;6.00;99.90
51615;DHT22;37695;52.960;6.188;2023-03-04T05:06:06;6.00;99.90
51615;DHT22;37695;52.960;6.188;2023-03-04T05:08:33;5.90;99.90
51615;DHT22;37695;52.960;6.188;2023-03-04T05:10:59;5.90;99.90
51615;DHT22;37695;52.960;6.188;2023-03-04T05:13:24;6.00;99.90
51615;DHT22;37695;52.960;6.188;2023-03-04T05:15:51;6.00;99.90
51615;DHT22;37695;52.960;6.188;2023-03-04T05:18:18;5.90;99.90
51615;DHT22;37695;52.960;6.188;2023-03-04T05:20:43;6.00;99.90
51615;DHT22;37695;52.960;6.188;2023-03-04T05:23:09;6.00;99.90
51615;DHT22;37695;52.960;6.188;2023-03-04T05:25:35;6.00;99.90
51615;DHT22;37695;52.960;6.188;2023-03-04T05:28:00;6.00;99.90
51615;DHT22;37695;52.960;6.188;2023-03-04T05:30:27;6.00;99.90
51615;DHT22;37695;52.960;6.188;2023-03-04T05:32:52;5.90;99.90
51615;DHT22;37695;52.960;6.188;2023-03-04T05:35:18;5.80;99.90
51615;DHT22;37695;52.960;6.188;2023-03-04T05:37:43;5.90;99.90
51615;DHT22;37695;52.960;6.188;2023-03-04T05:40:09;5.80;99.90
51615;DHT22;37695;52.960;6.188;2023-03-04T05:42:35;5.80;99.90
51615;DHT22;37695;52.960;6.188;2023-03-04T05:45:01;5.70;99.90
51615;DHT22;37695;52.960;6.188;2023-03-04T05:47:26;5.70;99.90
51615;DHT22;37695;52.960;6.188;2023-03-04T05:49:52;5.70;99.90
51615;DHT22;37695;52.960;6.188;2023-03-04T05:52:19;5.60;99.90
51615;DHT22;37695;52.960;6.188;2023-03-04T05:54:44;5.60;99.90
51615;DHT22;37695;52.960;6.188;2023-03-04T05:57:10;5.60;99.90
51615;DHT22;37695;52.960;6.188;2023-03-04T05:59:35;5.60;99.90
51615;DHT22;37695;52.960;6.188;2023-03-04T06:02:01;5.60;99.90
51615;DHT22;37695;52.960;6.188;2023-03-04T06:04:26;5.60;99.90
51615;DHT22;37695;52.960;6.188;2023-03-04T06:06:52;5.60;99.90
51615;DHT22;37695;52.960;6.188;2023-03-04T06:09:17;5.70;99.90
51615;DHT22;37695;52.960;6.188;2023-03-04T06:11:45;5.70;99.90
51615;DHT22;37695;52.960;6.188;2023-03-04T06:14:11;6.70;99.90
51615;DHT22;37695;52.960;6.188;2023-03-04T06:16:36;5.70;99.90
51615;DHT22;37695;52.960;6.188;2023-03-04T06:19:02;5.70;99.90
51615;DHT22;37695;52.960;6.188;2023-03-04T06:21:27;5.60;99.90
51615;DHT22;37695;52.960;6.188;2023-03-04T06:23:53;5.60;99.90
51615;DHT22;37695;52.960;6.188;2023-03-04T06:26:19;5.60;99.90
51615;DHT22;37695;52.960;6.188;2023-03-04T06:28:44;5.70;99.90
51615;DHT22;37695;52.960;6.188;2023-03-04T06:31:10;5.70;99.90
51615;DHT22;37695;52.960;6.188;2023-03-04T06:33:36;5.70;99.90
51615;DHT22;37695;52.960;6.188;2023-03-04T06:36:01;5.70;99.90
51615;DHT22;37695;52.960;6.188;2023-03-04T06:38:27;5.70;99.90
51615;DHT22;37695;52.960;6.188;2023-03-04T06:40:53;5.70;99.90
51615;DHT22;37695;52.960;6.188;2023-03-04T06:43:18;5.70;99.90
51615;DHT22;37695;52.960;6.188;2023-03-04T06:45:44;5.70;99.90
51615;DHT22;37695;52.960;6.188;2023-03-04T06:48:12;5.70;99.90
51615;DHT22;37695;52.960;6.188;2023-03-04T06:50:40;5.70;99.90
51615;DHT22;37695;52.960;6.188;2023-03-04T06:53:06;5.70;99.90
51615;DHT22;37695;52.960;6.188;2023-03-04T06:55:31;5.70;99.90
51615;DHT22;37695;52.960;6.188;2023-03-04T06:57:57;5.70;99.90
51615;DHT22;37695;52.960;6.188;2023-03-04T07:00:22;5.70;99.90
51615;DHT22;37695;52.960;6.188;2023-03-04T07:02:50;5.70;99.90
51615;DHT22;37695;52.960;6.188;2023-03-04T07:05:16;5.70;99.90
51615;DHT22;37695;52.960;6.188;2023-03-04T07:07:42;5.80;99.90
51615;DHT22;37695;52.960;6.188;2023-03-04T07:10:08;5.80;99.90
51615;DHT22;37695;52.960;6.188;2023-03-04T07:12:35;5.80;99.90
51615;DHT22;37695;52.960;6.188;2023-03-04T07:15:00;5.80;99.90
51615;DHT22;37695;52.960;6.188;2023-03-04T07:17:26;5.80;99.90
51615;DHT22;37695;52.960;6.188;2023-03-04T07:19:52;5.90;99.90
51615;DHT22;37695;52.960;6.188;2023-03-04T07:22:17;5.90;99.90
51615;DHT22;37695;52.960;6.188;2023-03-04T07:24:43;5.90;99.90
51615;DHT22;37695;52.960;6.188;2023-03-04T07:27:08;6.00;99.90
51615;DHT22;37695;52.960;6.188;2023-03-04T07:29:34;6.00;99.90
51615;DHT22;37695;52.960;6.188;2023-03-04T07:32:00;6.00;99.90
51615;DHT22;37695;52.960;6.188;2023-03-04T07:34:25;6.10;99.90
51615;DHT22;37695;52.960;6.188;2023-03-04T07:36:51;6.10;99.90
51615;DHT22;37695;52.960;6.188;2023-03-04T07:39:17;6.10;99.90
51615;DHT22;37695;52.960;6.188;2023-03-04T07:41:43;6.10;99.90
51615;DHT22;37695;52.960;6.188;2023-03-04T07:44:10;6.20;99.90
51615;DHT22;37695;52.960;6.188;2023-03-04T07:46:36;6.20;99.90
51615;DHT22;37695;52.960;6.188;2023-03-04T07:49:02;6.30;99.90
51615;DHT22;37695;52.960;6.188;2023-03-04T07:51:28;6.20;99.90
51615;DHT22;37695;52.960;6.188;2023-03-04T07:53:57;6.30;99.90
51615;DHT22;37695;52.960;6.188;2023-03-04T07:56:27;6.30;99.90
51615;DHT22;37695;52.960;6.188;2023-03-04T07:58:53;6.30;99.90
51615;DHT22;37695;52.960;6.188;2023-03-04T08:01:27;6.30;99.90
51615;DHT22;37695;52.960;6.188;2023-03-04T08:03:53;6.40;99.90
51615;DHT22;37695;52.960;6.188;2023-03-04T08:06:20;6.50;99.90
51615;DHT22;37695;52.960;6.188;2023-03-04T08:08:46;6.60;99.90
51615;DHT22;37695;52.960;6.188;2023-03-04T08:11:15;6.60;99.90
51615;DHT22;37695;52.960;6.188;2023-03-04T08:13:41;6.70;99.90
51615;DHT22;37695;52.960;6.188;2023-03-04T08:16:07;6.80;99.90
51615;DHT22;37695;52.960;6.188;2023-03-04T08:18:33;6.90;99.90
51615;DHT22;37695;52.960;6.188;2023-03-04T08:20:59;6.90;99.90
51615;DHT22;37695;52.960;6.188;2023-03-04T08:23:24;7.00;99.90
51615;DHT22;37695;52.960;6.188;2023-03-04T08:25:50;7.00;99.90
51615;DHT22;37695;52.960;6.188;2023-03-04T08:28:16;7.00;99.90
51615;DHT22;37695;52.960;6.188;2023-03-04T08:30:42;7.10;99.90
51615;DHT22;37695;52.960;6.188;2023-03-04T08:33:09;7.10;99.90
51615;DHT22;37695;52.960;6.188;2023-03-04T08:35:38;7.20;99.90
51615;DHT22;37695;52.960;6.188;2023-03-04T08:38:04;7.30;99.90
51615;DHT22;37695;52.960;6.188;2023-03-04T08:40:30;7.30;99.90
51615;DHT22;37695;52.960;6.188;2023-03-04T08:42:55;7.30;99.90
51615;DHT22;37695;52.960;6.188;2023-03-04T08:45:21;7.30;99.90
51615;DHT22;37695;52.960;6.188;2023-03-04T08:47:47;7.30;99.90
51615;DHT22;37695;52.960;6.188;2023-03-04T08:50:12;7.30;99.90
51615;DHT22;37695;52.960;6.188;2023-03-04T08:52:38;7.30;99.90
51615;DHT22;37695;52.960;6.188;2023-03-04T08:55:04;7.30;99.90
51615;DHT22;37695;52.960;6.188;2023-03-04T08:57:29;7.30;99.90
51615;DHT22;37695;52.960;6.188;2023-03-04T08:59:55;7.40;99.90
51615;DHT22;37695;52.960;6.188;2023-03-04T09:02:21;7.40;99.90
51615;DHT22;37695;52.960;6.188;2023-03-04T09:04:46;7.40;99.90
51615;DHT22;37695;52.960;6.188;2023-03-04T09:07:12;7.40;99.90
51615;DHT22;37695;52.960;6.188;2023-03-04T09:09:39;7.40;99.90
51615;DHT22;37695;52.960;6.188;2023-03-04T09:12:04;7.50;99.90
51615;DHT22;37695;52.960;6.188;2023-03-04T09:14:30;7.50;99.90
51615;DHT22;37695;52.960;6.188;2023-03-04T09:16:56;7.60;99.90
51615;DHT22;37695;52.960;6.188;2023-03-04T09:19:22;7.60;99.90
51615;DHT22;37695;52.960;6.188;2023-03-04T09:21:48;7.70;99.90
51615;DHT22;37695;52.960;6.188;2023-03-04T09:24:14;7.60;99.90
51615;DHT22;37695;52.960;6.188;2023-03-04T09:26:39;7.60;99.90
51615;DHT22;37695;52.960;6.188;2023-03-04T09:29:05;7.70;99.90
51615;DHT22;37695;52.960;6.188;2023-03-04T09:31:31;7.70;99.90
51615;DHT22;37695;52.960;6.188;2023-03-04T09:33:58;7.70;99.90
51615;DHT22;37695;52.960;6.188;2023-03-04T09:36:24;7.70;99.90
51615;DHT22;37695;52.960;6.188;2023-03-04T09:38:50;7.70;99.90
51615;DHT22;37695;52.960;6.188;2023-03-04T09:41:26;7.70;99.90
51615;DHT22;37695;52.960;6.188;2023-03-04T09:43:53;7.70;99.90
51615;DHT22;37695;52.960;6.188;2023-03-04T09:46:34;7.70;99.90
51615;DHT22;37695;52.960;6.188;2023-03-04T09:49:01;7.70;99.90
51615;DHT22;37695;52.960;6.188;2023-03-04T09:51:46;7.70;99.90
51615;DHT22;37695;52.960;6.188;2023-03-04T09:54:27;7.60;99.90
51615;DHT22;37695;52.960;6.188;2023-03-04T09:59:59;7.50;99.90
51615;DHT22;37695;52.960;6.188;2023-03-04T10:02:42;7.50;99.90
51615;DHT22;37695;52.960;6.188;2023-03-04T10:05:14;7.50;99.90
51615;DHT22;37695;52.960;6.188;2023-03-04T10:07:42;7.60;99.90
51615;DHT22;37695;52.960;6.188;2023-03-04T10:10:23;7.70;99.90
51615;DHT22;37695;52.960;6.188;2023-03-04T10:12:50;7.70;99.90
51615;DHT22;37695;52.960;6.188;2023-03-04T10:15:28;7.80;99.90
51615;DHT22;37695;52.960;6.188;2023-03-04T10:21:01;8.00;99.90
51615;DHT22;37695;52.960;6.188;2023-03-04T10:23:28;8.00;99.90
51615;DHT22;37695;52.960;6.188;2023-03-04T10:25:56;8.00;99.90
51615;DHT22;37695;52.960;6.188;2023-03-04T10:28:30;7.90;99.90
51615;DHT22;37695;52.960;6.188;2023-03-04T10:31:01;7.90;99.90
51615;DHT22;37695;52.960;6.188;2023-03-04T10:33:29;7.80;99.90
51615;DHT22;37695;52.960;6.188;2023-03-04T10:36:01;7.80;99.90
51615;DHT22;37695;52.960;6.188;2023-03-04T10:38:32;7.90;99.90
51615;DHT22;37695;52.960;6.188;2023-03-04T10:40:58;7.90;99.90
51615;DHT22;37695;52.960;6.188;2023-03-04T10:43:25;8.10;99.90
51615;DHT22;37695;52.960;6.188;2023-03-04T10:45:56;8.30;99.90
51615;DHT22;37695;52.960;6.188;2023-03-04T10:48:25;8.30;99.90
51615;DHT22;37695;52.960;6.188;2023-03-04T10:50:51;8.40;99.90
51615;DHT22;37695;52.960;6.188;2023-03-04T10:53:36;8.50;99.90
51615;DHT22;37695;52.960;6.188;2023-03-04T10:56:03;8.60;99.90
51615;DHT22;37695;52.960;6.188;2023-03-04T10:58:34;8.70;99.90
51615;DHT22;37695;52.960;6.188;2023-03-04T11:01:05;8.70;99.90
51615;DHT22;37695;52.960;6.188;2023-03-04T11:03:35;8.60;99.90
51615;DHT22;37695;52.960;6.188;2023-03-04T11:08:44;8.00;99.90
51615;DHT22;37695;52.960;6.188;2023-03-04T11:11:21;7.80;99.90
51615;DHT22;37695;52.960;6.188;2023-03-04T11:13:54;7.70;99.90
51615;DHT22;37695;52.960;6.188;2023-03-04T11:16:25;7.60;99.90
51615;DHT22;37695;52.960;6.188;2023-03-04T11:18:54;7.60;99.90
51615;DHT22;37695;52.960;6.188;2023-03-04T11:21:23;7.60;99.90
51615;DHT22;37695;52.960;6.188;2023-03-04T11:24:03;7.60;99.90
51615;DHT22;37695;52.960;6.188;2023-03-04T11:26:34;7.50;99.90
51615;DHT22;37695;52.960;6.188;2023-03-04T11:29:13;7.60;99.90
51615;DHT22;37695;52.960;6.188;2023-03-04T11:32:19;7.90;99.90
51615;DHT22;37695;52.960;6.188;2023-03-04T11:34:58;8.10;99.90
51615;DHT22;37695;52.960;6.188;2023-03-04T11:40:41;8.70;99.90
51615;DHT22;37695;52.960;6.188;2023-03-04T11:43:15;8.80;99.90
51615;DHT22;37695;52.960;6.188;2023-03-04T11:48:44;8.70;99.90
51615;DHT22;37695;52.960;6.188;2023-03-04T11:56:50;8.80;99.90
51615;DHT22;37695;52.960;6.188;2023-03-04T12:15:22;8.90;99.90
51615;DHT22;37695;52.960;6.188;2023-03-04T12:21:21;8.60;99.90
51615;DHT22;37695;52.960;6.188;2023-03-04T12:24:12;8.50;99.90
51615;DHT22;37695;52.960;6.188;2023-03-04T12:33:07;8.20;99.90
51615;DHT22;37695;52.960;6.188;2023-03-04T12:35:41;8.20;99.90
51615;DHT22;37695;52.960;6.188;2023-03-04T12:49:45;9.00;99.90
51615;DHT22;37695;52.960;6.188;2023-03-04T12:55:13;8.60;99.90
51615;DHT22;37695;52.960;6.188;2023-03-04T12:57:40;8.40;99.90
51615;DHT22;37695;52.960;6.188;2023-03-04T13:06:01;8.00;99.90
51615;DHT22;37695;52.960;6.188;2023-03-04T13:08:37;8.00;99.90
51615;DHT22;37695;52.960;6.188;2023-03-04T13:16:50;8.60;99.90
51615;DHT22;37695;52.960;6.188;2023-03-04T13:19:43;8.70;99.90
51615;DHT22;37695;52.960;6.188;2023-03-04T13:25:32;8.60;99.90
51615;DHT22;37695;52.960;6.188;2023-03-04T13:41:14;8.90;99.90
51615;DHT22;37695;52.960;6.188;2023-03-04T13:43:53;9.10;99.90
51615;DHT22;37695;52.960;6.188;2023-03-04T13:51:23;8.70;99.90
51615;DHT22;37695;52.960;6.188;2023-03-04T13:56:28;8.60;99.90
51615;DHT22;37695;52.960;6.188;2023-03-04T14:01:35;8.60;99.90
51615;DHT22;37695;52.960;6.188;2023-03-04T14:04:15;8.60;99.90
51615;DHT22;37695;52.960;6.188;2023-03-04T14:06:43;8.50;99.90
51615;DHT22;37695;52.960;6.188;2023-03-04T14:11:53;8.50;99.90
51615;DHT22;37695;52.960;6.188;2023-03-04T14:14:50;8.40;99.90
51615;DHT22;37695;52.960;6.188;2023-03-04T14:17:21;8.40;99.90
51615;DHT22;37695;52.960;6.188;2023-03-04T14:19:48;8.50;99.90
51615;DHT22;37695;52.960;6.188;2023-03-04T14:22:27;8.50;99.90
51615;DHT22;37695;52.960;6.188;2023-03-04T14:27:24;8.60;99.90
51615;DHT22;37695;52.960;6.188;2023-03-04T14:29:58;8.70;99.90
51615;DHT22;37695;52.960;6.188;2023-03-04T14:32:25;8.70;99.90
51615;DHT22;37695;52.960;6.188;2023-03-04T14:34:57;8.60;99.90
51615;DHT22;37695;52.960;6.188;2023-03-04T14:37:32;8.60;99.90
51615;DHT22;37695;52.960;6.188;2023-03-04T14:40:02;8.70;99.90
51615;DHT22;37695;52.960;6.188;2023-03-04T14:42:38;8.60;99.90
51615;DHT22;37695;52.960;6.188;2023-03-04T14:45:11;8.70;99.90
51615;DHT22;37695;52.960;6.188;2023-03-04T14:47:41;8.80;99.90
51615;DHT22;37695;52.960;6.188;2023-03-04T14:50:16;8.60;99.90
51615;DHT22;37695;52.960;6.188;2023-03-04T14:52:44;8.50;99.90
51615;DHT22;37695;52.960;6.188;2023-03-04T14:57:40;8.20;99.90
51615;DHT22;37695;52.960;6.188;2023-03-04T15:00:36;8.10;99.90
51615;DHT22;37695;52.960;6.188;2023-03-04T15:03:06;8.00;99.90
51615;DHT22;37695;52.960;6.188;2023-03-04T15:05:43;7.90;99.90
51615;DHT22;37695;52.960;6.188;2023-03-04T15:08:23;7.80;99.90
51615;DHT22;37695;52.960;6.188;2023-03-04T15:10:55;7.70;99.90
51615;DHT22;37695;52.960;6.188;2023-03-04T15:13:45;7.60;99.90
51615;DHT22;37695;52.960;6.188;2023-03-04T15:16:13;7.50;99.90
51615;DHT22;37695;52.960;6.188;2023-03-04T15:19:05;7.30;99.90
51615;DHT22;37695;52.960;6.188;2023-03-04T15:21:37;7.30;99.90
51615;DHT22;37695;52.960;6.188;2023-03-04T15:24:06;7.20;99.90
51615;DHT22;37695;52.960;6.188;2023-03-04T15:26:37;7.20;99.90
51615;DHT22;37695;52.960;6.188;2023-03-04T15:29:14;7.10;99.90
51615;DHT22;37695;52.960;6.188;2023-03-04T15:31:41;7.10;99.90
51615;DHT22;37695;52.960;6.188;2023-03-04T15:34:12;7.10;99.90
51615;DHT22;37695;52.960;6.188;2023-03-04T15:36:38;7.10;99.90
51615;DHT22;37695;52.960;6.188;2023-03-04T15:39:04;7.10;99.90
51615;DHT22;37695;52.960;6.188;2023-03-04T15:41:30;7.00;99.90
51615;DHT22;37695;52.960;6.188;2023-03-04T15:43:55;7.00;99.90
51615;DHT22;37695;52.960;6.188;2023-03-04T15:46:21;7.10;99.90
51615;DHT22;37695;52.960;6.188;2023-03-04T15:48:48;7.10;99.90
51615;DHT22;37695;52.960;6.188;2023-03-04T15:51:17;7.20;99.90
51615;DHT22;37695;52.960;6.188;2023-03-04T15:53:46;7.20;99.90
51615;DHT22;37695;52.960;6.188;2023-03-04T15:56:18;7.10;99.90
51615;DHT22;37695;52.960;6.188;2023-03-04T15:58:47;7.10;99.90
51615;DHT22;37695;52.960;6.188;2023-03-04T16:01:17;7.10;99.90
51615;DHT22;37695;52.960;6.188;2023-03-04T16:03:42;7.10;99.90
51615;DHT22;37695;52.960;6.188;2023-03-04T16:06:10;7.10;99.90
51615;DHT22;37695;52.960;6.188;2023-03-04T16:08:36;7.00;99.90
51615;DHT22;37695;52.960;6.188;2023-03-04T16:11:03;6.90;99.90
51615;DHT22;37695;52.960;6.188;2023-03-04T16:13:28;6.80;99.90
51615;DHT22;37695;52.960;6.188;2023-03-04T16:15:54;6.80;99.90
51615;DHT22;37695;52.960;6.188;2023-03-04T16:18:20;6.70;99.90
51615;DHT22;37695;52.960;6.188;2023-03-04T16:20:48;6.70;99.90
51615;DHT22;37695;52.960;6.188;2023-03-04T16:23:20;6.70;99.90
51615;DHT22;37695;52.960;6.188;2023-03-04T16:25:48;6.70;99.90
51615;DHT22;37695;52.960;6.188;2023-03-04T16:28:15;6.60;99.90
51615;DHT22;37695;52.960;6.188;2023-03-04T16:30:41;6.60;99.90
51615;DHT22;37695;52.960;6.188;2023-03-04T16:33:06;6.60;99.90
51615;DHT22;37695;52.960;6.188;2023-03-04T16:35:34;6.60;99.90
51615;DHT22;37695;52.960;6.188;2023-03-04T16:38:01;6.60;99.90
51615;DHT22;37695;52.960;6.188;2023-03-04T16:40:28;6.50;99.90
51615;DHT22;37695;52.960;6.188;2023-03-04T16:42:55;6.50;99.90
51615;DHT22;37695;52.960;6.188;2023-03-04T16:45:23;6.50;99.90
51615;DHT22;37695;52.960;6.188;2023-03-04T16:47:49;6.40;99.90
51615;DHT22;37695;52.960;6.188;2023-03-04T16:50:17;6.40;99.90
51615;DHT22;37695;52.960;6.188;2023-03-04T16:52:46;6.50;99.90
51615;DHT22;37695;52.960;6.188;2023-03-04T16:55:18;6.30;99.90
51615;DHT22;37695;52.960;6.188;2023-03-04T16:57:44;6.20;99.90
51615;DHT22;37695;52.960;6.188;2023-03-04T17:00:11;6.10;99.90
51615;DHT22;37695;52.960;6.188;2023-03-04T17:02:37;6.10;99.90
51615;DHT22;37695;52.960;6.188;2023-03-04T17:05:03;6.00;99.90
51615;DHT22;37695;52.960;6.188;2023-03-04T17:07:29;6.00;99.90
51615;DHT22;37695;52.960;6.188;2023-03-04T17:09:54;6.00;99.90
51615;DHT22;37695;52.960;6.188;2023-03-04T17:12:20;5.90;99.90
51615;DHT22;37695;52.960;6.188;2023-03-04T17:14:45;5.90;99.90
51615;DHT22;37695;52.960;6.188;2023-03-04T17:17:11;5.90;99.90
51615;DHT22;37695;52.960;6.188;2023-03-04T17:19:36;5.80;99.90
51615;DHT22;37695;52.960;6.188;2023-03-04T17:22:03;5.90;99.90
51615;DHT22;37695;52.960;6.188;2023-03-04T17:24:29;5.80;99.90
51615;DHT22;37695;52.960;6.188;2023-03-04T17:26:55;5.80;99.90
51615;DHT22;37695;52.960;6.188;2023-03-04T17:29:21;5.80;99.90
51615;DHT22;37695;52.960;6.188;2023-03-04T17:31:46;5.80;99.90
51615;DHT22;37695;52.960;6.188;2023-03-04T17:34:12;5.80;99.90
51615;DHT22;37695;52.960;6.188;2023-03-04T17:36:38;5.70;99.90
51615;DHT22;37695;52.960;6.188;2023-03-04T17:39:05;5.70;99.90